Terminal Aerodrome Forecast
Issued by NWS

Home | Current Version | Previous Version | Text Only | Print | Product List | Glossary On
Versions: 1 2 3 4 5 6 7 8 9 10 11 12 13 14 15 16 17 18
255
FTUS43 KAPX 052155 AAA
TAFAPN
TAF AMD
KAPN 052155Z 0522/0618 28004KT P6SM BKN050
     FM060000 24003KT P6SM BKN120
     FM061000 21006KT P6SM OVC080 WS020/25032KT
     FM061500 24010KT P6SM VCSH BKN030 OVC060=

USA.gov is the U.S. government's official web portal to all federal, state and local government web resources and services.